createdAt,value
2018-12-15T00:00:26.568Z,101014.36
2018-12-15T00:02:52.831Z,101009.81
2018-12-15T00:05:19.118Z,101013.22
2018-12-15T00:07:45.651Z,101010.66
2018-12-15T00:10:12.062Z,101012.78
2018-12-15T00:12:38.367Z,101015.17
2018-12-15T00:15:05.890Z,101019.09
2018-12-15T00:17:32.202Z,101016.37
2018-12-15T00:19:58.467Z,101019.69
2018-12-15T00:22:25.964Z,101021.56
2018-12-15T00:24:52.273Z,101026.30
2018-12-15T00:27:18.448Z,101030.19
2018-12-15T00:29:45.036Z,101031.30
2018-12-15T00:32:11.334Z,101032.48
2018-12-15T00:34:37.642Z,101030.49
2018-12-15T00:37:04.161Z,101034.44
2018-12-15T00:39:30.359Z,101034.05
2018-12-15T00:41:56.548Z,101035.47
2018-12-15T00:44:22.945Z,101039.98
2018-12-15T00:46:49.112Z,101046.54
2018-12-15T00:49:15.321Z,101043.77
2018-12-15T00:51:41.766Z,101049.78
2018-12-15T00:54:07.966Z,101048.80
2018-12-15T00:56:34.159Z,101052.80
2018-12-15T00:59:00.574Z,101054.37
2018-12-15T01:01:27.673Z,101052.36
2018-12-15T01:03:53.950Z,101049.50
2018-12-15T01:06:20.500Z,101050.02
2018-12-15T01:08:47.142Z,101053.26
2018-12-15T01:11:14.153Z,101046.45
2018-12-15T01:13:41.166Z,101054.17
2018-12-15T01:16:09.907Z,101053.59
2018-12-15T01:18:36.795Z,101056.75
2018-12-15T01:21:03.255Z,101057.27
2018-12-15T01:23:29.430Z,101057.27
2018-12-15T01:25:55.587Z,101058.59
2018-12-15T01:28:22.103Z,101056.53
2018-12-15T01:30:48.424Z,101060.98
2018-12-15T01:33:14.578Z,101067.02
2018-12-15T01:35:41.050Z,101060.03
2018-12-15T01:38:07.329Z,101060.41
2018-12-15T01:40:33.586Z,101052.88
2018-12-15T01:43:00.056Z,101050.54
2018-12-15T01:45:26.472Z,101051.43
2018-12-15T01:47:52.735Z,101050.23
2018-12-15T01:50:19.703Z,101048.52
2018-12-15T01:52:46.033Z,101054.33
2018-12-15T01:55:12.201Z,101050.50
2018-12-15T01:57:38.899Z,101055.20
2018-12-15T02:00:06.384Z,101051.09
2018-12-15T02:02:33.394Z,101051.09
2018-12-15T02:04:59.946Z,101049.03
2018-12-15T02:07:26.199Z,101044.30
2018-12-15T02:09:52.495Z,101046.82
2018-12-15T02:12:19.170Z,101046.35
2018-12-15T02:14:45.478Z,101047.08
2018-12-15T02:17:11.766Z,101045.05
2018-12-15T02:19:38.064Z,101048.08
2018-12-15T02:22:04.351Z,101049.52
2018-12-15T02:24:30.402Z,101052.32
2018-12-15T02:27:04.056Z,101053.63
2018-12-15T02:29:30.360Z,101050.58
2018-12-15T02:31:56.636Z,101049.44
2018-12-15T02:34:22.989Z,101050.63
2018-12-15T02:36:49.190Z,101051.99
2018-12-15T02:39:15.355Z,101046.70
2018-12-15T02:41:47.205Z,101049.81
2018-12-15T02:44:09.649Z,101045.88
2018-12-15T02:46:35.951Z,101046.26
2018-12-15T02:49:02.222Z,101045.23
2018-12-15T02:51:28.507Z,101045.39
2018-12-15T02:53:54.602Z,101045.72
2018-12-15T02:56:21.662Z,101042.31
2018-12-15T02:58:47.942Z,101044.06
2018-12-15T03:01:14.205Z,101046.09
2018-12-15T03:03:40.339Z,101041.48
2018-12-15T03:06:06.726Z,101043.76
2018-12-15T03:08:33.041Z,101042.12
2018-12-15T03:10:59.661Z,101039.98
2018-12-15T03:13:25.807Z,101042.22
2018-12-15T03:15:52.583Z,101044.64
2018-12-15T03:18:19.378Z,101046.21
2018-12-15T03:20:58.282Z,101048.97
2018-12-15T03:23:24.863Z,101056.35
2018-12-15T03:25:51.559Z,101052.09
2018-12-15T03:28:17.924Z,101054.53
2018-12-15T03:30:44.165Z,101052.08
2018-12-15T03:33:10.369Z,101058.33
2018-12-15T03:35:36.531Z,101061.59
2018-12-15T03:38:03.683Z,101058.28
2018-12-15T03:42:55.545Z,101062.72
2018-12-15T03:45:22.082Z,101054.84
2018-12-15T03:47:48.333Z,101058.92
2018-12-15T03:50:14.402Z,101060.95
2018-12-15T03:52:40.707Z,101064.19
2018-12-15T03:55:06.958Z,101062.51
2018-12-15T03:57:33.034Z,101064.34
2018-12-15T03:59:59.693Z,101064.55
2018-12-15T04:02:25.933Z,101069.35
2018-12-15T04:04:52.355Z,101061.34
2018-12-15T04:07:18.750Z,101063.16
2018-12-15T04:09:44.949Z,101059.58
2018-12-15T04:12:11.215Z,101058.66
2018-12-15T04:14:37.621Z,101058.33
2018-12-15T04:17:04.166Z,101062.21
2018-12-15T04:19:30.508Z,101061.55
2018-12-15T04:22:12.283Z,101068.67
2018-12-15T04:24:38.358Z,101072.05
2018-12-15T04:27:04.693Z,101073.90
2018-12-15T04:29:30.960Z,101072.20
2018-12-15T04:31:57.114Z,101069.74
2018-12-15T04:34:23.246Z,101065.02
2018-12-15T04:36:49.719Z,101065.69
2018-12-15T04:39:15.870Z,101066.78
2018-12-15T04:41:42.037Z,101066.78
2018-12-15T04:44:08.491Z,101069.42
2018-12-15T04:46:34.682Z,101075.38
2018-12-15T04:49:01.236Z,101075.43
2018-12-15T04:51:27.617Z,101080.77
2018-12-15T04:53:53.845Z,101077.64
2018-12-15T04:56:20.135Z,101079.11
2018-12-15T04:58:46.518Z,101079.82
2018-12-15T05:01:12.861Z,101082.97
2018-12-15T05:03:39.155Z,101080.61
2018-12-15T05:06:05.740Z,101079.50
2018-12-15T05:08:31.930Z,101078.47
2018-12-15T05:10:58.225Z,101084.48
2018-12-15T05:13:24.658Z,101081.79
2018-12-15T05:15:50.854Z,101080.66
2018-12-15T05:18:18.274Z,101083.66
2018-12-15T05:20:45.287Z,101081.89
2018-12-15T05:23:11.443Z,101079.74
2018-12-15T05:25:37.605Z,101085.20
2018-12-15T05:28:04.456Z,101086.02
2018-12-15T05:30:30.638Z,101090.81
2018-12-15T05:32:56.952Z,101092.88
2018-12-15T05:35:23.180Z,101085.77
2018-12-15T05:37:49.429Z,101090.59
2018-12-15T05:40:15.578Z,101087.72
2018-12-15T05:42:42.221Z,101087.89
2018-12-15T05:45:08.471Z,101091.30
2018-12-15T05:47:34.721Z,101093.36
2018-12-15T05:50:01.643Z,101090.13
2018-12-15T05:52:27.815Z,101093.63
2018-12-15T05:54:54.098Z,101093.80
2018-12-15T05:57:21.038Z,101090.73
2018-12-15T05:59:47.133Z,101093.01
2018-12-15T06:02:14.135Z,101093.59
2018-12-15T06:04:40.434Z,101094.75
2018-12-15T06:07:09.034Z,101098.78
2018-12-15T06:09:35.288Z,101104.67
2018-12-15T06:12:06.250Z,101104.98
2018-12-15T06:14:32.414Z,101108.13
2018-12-15T06:17:11.943Z,101105.73
2018-12-15T06:19:38.751Z,101107.63
2018-12-15T06:22:06.118Z,101110.24
2018-12-15T06:24:32.631Z,101111.60
2018-12-15T06:26:58.663Z,101111.72
2018-12-15T06:29:24.740Z,101106.71
2018-12-15T06:31:51.086Z,101112.02
2018-12-15T06:34:17.446Z,101111.42
2018-12-15T06:36:43.617Z,101118.70
2018-12-15T06:39:10.081Z,101115.64
2018-12-15T06:41:36.354Z,101115.27
2018-12-15T06:44:02.751Z,101117.09
2018-12-15T06:46:28.855Z,101121.14
2018-12-15T06:48:55.053Z,101122.33
2018-12-15T06:51:21.266Z,101122.80
2018-12-15T06:53:47.616Z,101123.81
2018-12-15T06:56:14.223Z,101125.42
2018-12-15T06:58:40.442Z,101125.86
2018-12-15T07:01:06.916Z,101128.22
2018-12-15T07:03:33.240Z,101127.56
2018-12-15T07:05:59.404Z,101131.57
2018-12-15T07:08:26.270Z,101125.70
2018-12-15T07:10:52.433Z,101137.94
2018-12-15T07:13:18.730Z,101140.58
2018-12-15T07:15:45.282Z,101137.28
2018-12-15T07:18:11.351Z,101144.22
2018-12-15T07:20:37.991Z,101147.05
2018-12-15T07:23:05.397Z,101144.50
2018-12-15T07:25:32.691Z,101141.67
2018-12-15T07:27:58.912Z,101141.72
2018-12-15T07:30:25.838Z,101142.79
2018-12-15T07:32:51.960Z,101137.73
2018-12-15T07:35:18.319Z,101136.48
2018-12-15T07:37:44.644Z,101136.48
2018-12-15T07:40:11.022Z,101136.86
2018-12-15T07:42:37.181Z,101133.65
2018-12-15T07:45:04.417Z,101134.41
2018-12-15T07:47:30.766Z,101136.61
2018-12-15T07:49:56.946Z,101140.39
2018-12-15T07:52:23.532Z,101143.00
2018-12-15T07:54:49.742Z,101136.61
2018-12-15T07:57:15.943Z,101141.23
2018-12-15T07:59:42.293Z,101146.11
2018-12-15T08:02:08.685Z,101144.69
2018-12-15T08:04:34.884Z,101148.86
2018-12-15T08:07:01.467Z,101146.46
2018-12-15T08:09:27.767Z,101145.59
2018-12-15T08:12:00.122Z,101144.31
2018-12-15T08:14:27.062Z,101142.55
2018-12-15T08:16:53.262Z,101141.23
2018-12-15T08:19:19.441Z,101141.21
2018-12-15T08:21:45.800Z,101147.66
2018-12-15T08:24:11.952Z,101149.13
2018-12-15T08:26:38.144Z,101153.05
2018-12-15T08:29:04.727Z,101150.84
2018-12-15T08:31:31.041Z,101150.88
2018-12-15T08:33:57.250Z,101150.58
2018-12-15T08:36:23.810Z,101156.86
2018-12-15T08:38:50.089Z,101157.05
2018-12-15T08:41:16.350Z,101159.89
2018-12-15T08:43:43.481Z,101160.75
2018-12-15T08:46:11.832Z,101161.00
2018-12-15T08:48:38.102Z,101160.59
2018-12-15T08:51:05.081Z,101158.59
2018-12-15T08:53:31.255Z,101159.37
2018-12-15T08:55:57.514Z,101153.58
2018-12-15T08:58:23.738Z,101158.38
2018-12-15T09:00:50.680Z,101154.78
2018-12-15T09:03:16.888Z,101158.72
2018-12-15T09:05:43.634Z,101157.83
2018-12-15T09:08:09.965Z,101156.80
2018-12-15T09:10:36.289Z,101159.19
2018-12-15T09:13:03.047Z,101156.11
2018-12-15T09:15:29.311Z,101155.63
2018-12-15T09:17:55.543Z,101160.06
2018-12-15T09:20:22.157Z,101160.20
2018-12-15T09:22:49.959Z,101158.81
2018-12-15T09:25:16.614Z,101156.25
2018-12-15T09:27:42.944Z,101146.72
2018-12-15T09:30:09.322Z,101150.26
2018-12-15T09:32:35.558Z,101148.33
2018-12-15T09:35:15.827Z,101144.56
2018-12-15T09:37:42.440Z,101144.29
2018-12-15T09:40:09.237Z,101139.22
2018-12-15T09:42:35.656Z,101138.95
2018-12-15T09:45:06.632Z,101135.05
2018-12-15T09:47:32.902Z,101131.73
2018-12-15T09:49:59.267Z,101132.16
2018-12-15T09:52:25.671Z,101126.34
2018-12-15T09:54:51.917Z,101125.34
2018-12-15T09:57:19.186Z,101127.17
2018-12-15T09:59:45.650Z,101122.70
2018-12-15T10:02:11.907Z,101117.47
2018-12-15T10:04:38.353Z,101121.39
2018-12-15T10:07:04.826Z,101121.09
2018-12-15T10:09:31.038Z,101120.49
2018-12-15T10:11:57.288Z,101123.32
2018-12-15T10:14:23.378Z,101119.83
2018-12-15T10:16:49.661Z,101116.56
2018-12-15T10:19:16.278Z,101114.36
2018-12-15T10:21:42.576Z,101115.20
2018-12-15T10:24:08.619Z,101110.00
2018-12-15T10:26:35.161Z,101108.70
2018-12-15T10:29:01.497Z,101111.44
2018-12-15T10:31:34.041Z,101103.59
2018-12-15T10:34:00.609Z,101100.72
2018-12-15T10:36:26.903Z,101102.21
2018-12-15T10:38:53.094Z,101098.00
2018-12-15T10:41:19.926Z,101098.00
2018-12-15T10:43:46.072Z,101099.26
2018-12-15T10:46:12.345Z,101099.53
2018-12-15T10:48:38.739Z,101098.36
2018-12-15T10:51:05.285Z,101093.60
2018-12-15T10:53:31.618Z,101084.89
2018-12-15T10:55:57.887Z,101083.59
2018-12-15T10:58:23.989Z,101079.22
2018-12-15T11:00:56.563Z,101074.66
2018-12-15T11:03:23.098Z,101072.18
2018-12-15T11:05:49.258Z,101070.98
2018-12-15T11:08:15.617Z,101079.41
2018-12-15T11:10:41.967Z,101074.90
2018-12-15T11:13:08.250Z,101077.79
2018-12-15T11:15:34.527Z,101076.73
2018-12-15T11:18:01.809Z,101068.65
2018-12-15T11:20:27.983Z,101072.11
2018-12-15T11:22:54.243Z,101069.25
2018-12-15T11:25:21.906Z,101071.20
2018-12-15T11:27:48.549Z,101069.97
2018-12-15T11:30:14.871Z,101070.94
2018-12-15T11:32:41.822Z,101064.35
2018-12-15T11:35:08.249Z,101065.73
2018-12-15T11:37:34.503Z,101065.86
2018-12-15T11:40:04.973Z,101064.17
2018-12-15T11:42:31.167Z,101063.48
2018-12-15T11:44:57.372Z,101058.97
2018-12-15T11:47:23.928Z,101064.30
2018-12-15T11:49:50.276Z,101052.73
2018-12-15T11:52:16.347Z,101052.20
2018-12-15T11:54:43.633Z,101050.87
2018-12-15T11:57:09.811Z,101048.27
2018-12-15T11:59:36.091Z,101045.69
2018-12-15T12:02:02.730Z,101037.44
2018-12-15T12:04:29.000Z,101043.55
2018-12-15T12:06:55.238Z,101037.02
2018-12-15T12:09:21.681Z,101033.02
2018-12-15T12:11:47.937Z,101033.23
2018-12-15T12:14:14.185Z,101029.34
2018-12-15T12:16:40.567Z,101024.93
2018-12-15T12:19:06.713Z,101024.09
2018-12-15T12:21:32.897Z,101025.77
2018-12-15T12:23:59.477Z,101029.16
2018-12-15T12:26:25.734Z,101028.65
2018-12-15T12:28:52.586Z,101024.70
2018-12-15T12:31:19.055Z,101026.00
2018-12-15T12:33:45.210Z,101019.63
2018-12-15T12:36:12.175Z,101022.03
2018-12-15T12:38:38.820Z,101018.70
2018-12-15T12:41:05.089Z,101014.89
2018-12-15T12:43:31.376Z,101012.48
2018-12-15T12:45:57.874Z,101013.59
2018-12-15T12:48:24.186Z,101016.76
2018-12-15T12:50:50.472Z,101018.64
2018-12-15T12:53:16.715Z,101017.91
2018-12-15T12:55:42.970Z,101021.09
2018-12-15T12:58:09.270Z,101016.84
2018-12-15T13:00:35.767Z,101013.52
2018-12-15T13:03:02.091Z,101009.36
2018-12-15T13:05:28.432Z,101008.79
2018-12-15T13:07:54.987Z,101011.40
2018-12-15T13:10:21.290Z,101016.28
2018-12-15T13:12:47.987Z,101011.70
2018-12-15T13:15:14.204Z,101013.17
2018-12-15T13:17:40.458Z,101009.42
2018-12-15T13:20:06.729Z,101014.76
2018-12-15T13:22:33.619Z,101015.33
2018-12-15T13:24:59.861Z,101011.55
2018-12-15T13:27:26.288Z,101015.61
2018-12-15T13:29:53.066Z,101012.81
2018-12-15T13:32:19.320Z,101019.55
2018-12-15T13:34:45.465Z,101017.92
2018-12-15T13:37:12.060Z,101019.52
2018-12-15T13:39:38.236Z,101017.40
2018-12-15T13:42:04.549Z,101020.39
2018-12-15T13:44:31.090Z,101015.22
2018-12-15T13:46:57.365Z,101016.30
2018-12-15T13:49:23.728Z,101018.20
2018-12-15T13:51:50.176Z,101025.70
2018-12-15T13:54:16.364Z,101021.28
2018-12-15T13:56:42.659Z,101024.80
2018-12-15T13:59:08.986Z,101022.06
2018-12-15T14:01:35.149Z,101028.28
2018-12-15T14:04:01.369Z,101026.05
2018-12-15T14:06:27.645Z,101029.56
2018-12-15T14:08:53.785Z,101031.13
2018-12-15T14:11:20.048Z,101024.34
2018-12-15T14:13:46.601Z,101020.16
2018-12-15T14:16:12.944Z,101028.81
2018-12-15T14:18:39.126Z,101022.64
2018-12-15T14:21:05.486Z,101023.95
2018-12-15T14:23:31.641Z,101025.16
2018-12-15T14:25:57.811Z,101022.98
2018-12-15T14:28:24.219Z,101024.45
2018-12-15T14:30:50.842Z,101023.95
2018-12-15T14:33:17.102Z,101022.70
2018-12-15T14:35:43.466Z,101019.63
2018-12-15T14:38:09.681Z,101016.97
2018-12-15T14:40:35.962Z,101016.02
2018-12-15T14:43:02.308Z,101013.56
2018-12-15T14:45:28.473Z,101010.83
2018-12-15T14:47:54.744Z,101010.94
2018-12-15T14:50:23.444Z,101008.02
2018-12-15T14:52:49.658Z,101015.70
2018-12-15T14:55:16.355Z,101012.71
2018-12-15T14:57:42.689Z,101011.00
2018-12-15T15:00:08.957Z,101008.55
2018-12-15T15:02:35.223Z,101008.52
2018-12-15T15:05:02.046Z,101000.03
2018-12-15T15:07:28.145Z,100997.80
2018-12-15T15:09:54.497Z,100996.14
2018-12-15T15:12:21.026Z,100999.57
2018-12-15T15:14:47.110Z,100991.13
2018-12-15T15:17:13.458Z,100996.83
2018-12-15T15:19:40.087Z,100989.59
2018-12-15T15:22:06.241Z,100991.96
2018-12-15T15:24:32.575Z,100990.98
2018-12-15T15:26:59.176Z,100984.81
2018-12-15T15:29:25.550Z,100983.34
2018-12-15T15:31:51.664Z,100978.58
2018-12-15T15:34:18.099Z,100975.59
2018-12-15T15:36:44.413Z,100974.30
2018-12-15T15:39:10.695Z,100972.64
2018-12-15T15:41:37.297Z,100972.70
2018-12-15T15:44:03.618Z,100969.65
2018-12-15T15:46:29.823Z,100973.73
2018-12-15T15:48:56.419Z,100974.48
2018-12-15T15:51:24.200Z,100970.47
2018-12-15T15:53:50.788Z,100972.58
2018-12-15T15:56:17.685Z,100972.55
2018-12-15T15:58:43.962Z,100969.45
2018-12-15T16:01:10.256Z,100965.61
2018-12-15T16:03:36.641Z,100965.45
2018-12-15T16:06:02.899Z,100964.05
2018-12-15T16:08:29.150Z,100962.31
2018-12-15T16:10:55.698Z,100960.86
2018-12-15T16:13:21.873Z,100957.58
2018-12-15T16:15:48.162Z,100962.94
2018-12-15T16:18:14.613Z,100952.30
2018-12-15T16:20:43.356Z,100950.69
2018-12-15T16:23:09.274Z,100947.53
2018-12-15T16:25:35.785Z,100947.91
2018-12-15T16:28:02.091Z,100944.30
2018-12-15T16:30:28.338Z,100947.80
2018-12-15T16:32:54.821Z,100951.54
2018-12-15T16:35:21.058Z,100950.48
2018-12-15T16:37:47.242Z,100948.70
2018-12-15T16:40:13.904Z,100939.88
2018-12-15T16:42:40.182Z,100940.78
2018-12-15T16:45:07.591Z,100941.67
2018-12-15T16:47:34.258Z,100941.55
2018-12-15T16:50:00.606Z,100939.59
2018-12-15T16:52:26.923Z,100937.41
2018-12-15T16:54:53.569Z,100938.03
2018-12-15T16:57:20.451Z,100937.63
2018-12-15T16:59:46.808Z,100937.41
2018-12-15T17:02:13.166Z,100936.77
2018-12-15T17:04:39.419Z,100937.41
2018-12-15T17:07:05.718Z,100930.92
2018-12-15T17:09:32.494Z,100928.48
2018-12-15T17:11:58.792Z,100924.69
2018-12-15T17:14:25.113Z,100927.05
2018-12-15T17:16:51.408Z,100933.45
2018-12-15T17:19:18.047Z,100927.97
2018-12-15T17:21:44.453Z,100927.02
2018-12-15T17:24:10.853Z,100923.52
2018-12-15T17:26:37.118Z,100922.73
2018-12-15T17:29:03.434Z,100923.72
2018-12-15T17:31:29.954Z,100918.14
2018-12-15T17:33:56.214Z,100916.42
2018-12-15T17:36:22.369Z,100914.62
2018-12-15T17:38:48.673Z,100911.19
2018-12-15T17:41:14.858Z,100907.19
2018-12-15T17:43:41.073Z,100907.05
2018-12-15T17:46:07.383Z,100907.19
2018-12-15T17:48:33.742Z,100905.96
2018-12-15T17:51:03.228Z,100901.27
2018-12-15T17:53:28.516Z,100899.42
2018-12-15T17:55:54.812Z,100896.70
2018-12-15T17:58:21.120Z,100893.12
2018-12-15T18:00:47.391Z,100893.69
2018-12-15T18:03:13.645Z,100887.98
2018-12-15T18:05:39.931Z,100886.31
2018-12-15T18:08:06.134Z,100885.30
2018-12-15T18:10:32.292Z,100879.91
2018-12-15T18:12:58.466Z,100882.28
2018-12-15T18:15:24.840Z,100880.63
2018-12-15T18:17:51.042Z,100877.31
2018-12-15T18:20:17.325Z,100876.72
2018-12-15T18:22:43.741Z,100872.36
2018-12-15T18:25:10.298Z,100872.02
2018-12-15T18:27:36.597Z,100868.83
2018-12-15T18:30:06.470Z,100871.95
2018-12-15T18:32:32.661Z,100865.42
2018-12-15T18:34:58.848Z,100863.42
2018-12-15T18:37:25.381Z,100858.47
2018-12-15T18:39:51.644Z,100856.78
2018-12-15T18:42:17.903Z,100853.30
2018-12-15T18:44:44.112Z,100844.80
2018-12-15T18:47:10.261Z,100845.48
2018-12-15T18:49:36.443Z,100844.92
2018-12-15T18:52:03.557Z,100836.79
2018-12-15T18:54:29.807Z,100836.28
2018-12-15T18:56:56.375Z,100836.55
2018-12-15T18:59:23.554Z,100838.51
2018-12-15T19:01:49.835Z,100833.32
2018-12-15T19:04:16.146Z,100827.22
2018-12-15T19:06:42.382Z,100831.05
2018-12-15T19:09:08.642Z,100829.91
2018-12-15T19:11:34.958Z,100826.02
2018-12-15T19:14:01.456Z,100823.00
2018-12-15T19:16:27.757Z,100820.34
2018-12-15T19:18:54.031Z,100820.63
2018-12-15T19:21:23.057Z,100819.45
2018-12-15T19:23:48.753Z,100812.80
2018-12-15T19:26:15.026Z,100815.02
2018-12-15T19:28:41.785Z,100813.18
2018-12-15T19:31:08.493Z,100807.78
2018-12-15T19:33:34.697Z,100812.81
2018-12-15T19:36:01.214Z,100808.97
2018-12-15T19:38:27.486Z,100798.81
2018-12-15T19:40:53.662Z,100800.83
2018-12-15T19:43:20.025Z,100801.14
2018-12-15T19:45:46.229Z,100803.23
2018-12-15T19:48:12.553Z,100797.45
2018-12-15T19:50:39.128Z,100790.34
2018-12-15T19:53:08.687Z,100786.44
2018-12-15T19:55:34.972Z,100792.03
2018-12-15T19:58:06.645Z,100789.00
2018-12-15T20:00:32.922Z,100787.47
2018-12-15T20:02:59.158Z,100789.22
2018-12-15T20:05:25.725Z,100784.98
2018-12-15T20:07:52.204Z,100781.53
2018-12-15T20:10:18.403Z,100781.53
2018-12-15T20:12:44.762Z,100780.38
2018-12-15T20:15:10.933Z,100780.39
2018-12-15T20:17:37.176Z,100776.69
2018-12-15T20:20:08.301Z,100770.38
2018-12-15T20:22:34.599Z,100767.72
2018-12-15T20:25:01.031Z,100764.12
2018-12-15T20:27:27.383Z,100761.06
2018-12-15T20:29:53.719Z,100760.80
2018-12-15T20:32:20.125Z,100760.97
2018-12-15T20:34:46.518Z,100757.66
2018-12-15T20:37:12.843Z,100756.64
2018-12-15T20:39:38.953Z,100753.59
2018-12-15T20:42:05.431Z,100752.80
2018-12-15T20:44:31.683Z,100753.84
2018-12-15T20:46:57.892Z,100748.31
2018-12-15T20:49:24.209Z,100743.03
2018-12-15T20:51:50.327Z,100730.36
2018-12-15T20:54:17.206Z,100730.36
2018-12-15T20:56:43.534Z,100727.84
2018-12-15T20:59:09.688Z,100726.09
2018-12-15T21:01:35.947Z,100721.64
2018-12-15T21:04:02.323Z,100723.14
2018-12-15T21:06:28.407Z,100711.06
2018-12-15T21:08:54.919Z,100711.41
2018-12-15T21:11:24.159Z,100705.36
2018-12-15T21:13:49.631Z,100697.87
2018-12-15T21:16:15.917Z,100698.24
2018-12-15T21:18:42.318Z,100698.84
2018-12-15T21:21:08.602Z,100698.89
2018-12-15T21:23:34.765Z,100692.22
2018-12-15T21:26:01.191Z,100688.84
2018-12-15T21:28:27.527Z,100684.66
2018-12-15T21:30:54.270Z,100680.45
2018-12-15T21:33:21.172Z,100670.86
2018-12-15T21:35:47.457Z,100667.52
2018-12-15T21:38:13.743Z,100665.77
2018-12-15T21:40:40.407Z,100664.81
2018-12-15T21:43:15.230Z,100662.80
2018-12-15T21:45:41.861Z,100659.55
2018-12-15T21:48:08.114Z,100661.27
2018-12-15T21:50:35.155Z,100657.01
2018-12-15T21:53:06.446Z,100652.44
2018-12-15T21:55:32.719Z,100646.22
2018-12-15T21:57:58.820Z,100643.90
2018-12-15T22:00:25.496Z,100645.47
2018-12-15T22:02:51.879Z,100645.64
2018-12-15T22:05:18.294Z,100640.78
2018-12-15T22:07:44.697Z,100639.00
2018-12-15T22:10:10.984Z,100629.86
2018-12-15T22:12:37.278Z,100623.31
2018-12-15T22:15:04.703Z,100614.67
2018-12-15T22:17:30.972Z,100611.37
2018-12-15T22:19:57.290Z,100606.67
2018-12-15T22:22:23.832Z,100603.66
2018-12-15T22:24:50.109Z,100601.30
2018-12-15T22:27:16.288Z,100595.63
2018-12-15T22:29:42.913Z,100587.95
2018-12-15T22:32:09.716Z,100585.80
2018-12-15T22:34:36.029Z,100583.52
2018-12-15T22:37:02.841Z,100580.45
2018-12-15T22:39:29.313Z,100577.23
2018-12-15T22:41:55.599Z,100578.31
2018-12-15T22:44:22.072Z,100576.42
2018-12-15T22:46:48.130Z,100573.11
2018-12-15T22:49:14.287Z,100573.16
2018-12-15T22:51:40.783Z,100573.41
2018-12-15T22:54:06.980Z,100565.73
2018-12-15T22:56:33.127Z,100564.67
2018-12-15T22:58:59.729Z,100558.47
2018-12-15T23:01:25.983Z,100558.45
2018-12-15T23:03:52.347Z,100557.01
2018-12-15T23:06:18.843Z,100553.30
2018-12-15T23:08:45.005Z,100554.52
2018-12-15T23:11:11.398Z,100555.66
2018-12-15T23:13:37.954Z,100550.56
2018-12-15T23:16:04.187Z,100545.16
2018-12-15T23:18:30.499Z,100540.73
2018-12-15T23:20:56.822Z,100533.76
2018-12-15T23:23:23.084Z,100530.03
2018-12-15T23:25:49.313Z,100527.02
2018-12-15T23:28:15.679Z,100522.75
2018-12-15T23:30:42.249Z,100519.34
2018-12-15T23:33:08.615Z,100517.77
2018-12-15T23:35:35.295Z,100515.75
2018-12-15T23:38:01.522Z,100509.84
2018-12-15T23:40:27.812Z,100504.80
2018-12-15T23:42:54.306Z,100500.85
2018-12-15T23:45:20.590Z,100495.02
2018-12-15T23:47:46.774Z,100492.77
2018-12-15T23:50:13.138Z,100489.29
2018-12-15T23:52:39.223Z,100479.88
2018-12-15T23:55:05.501Z,100477.67
2018-12-15T23:57:31.927Z,100480.06
2018-12-15T23:59:58.256Z,100476.48
